BAW2158 TTCP-TAPA
Flight info
| Callsign | BAW2158 |
|---|---|
| Flight time | 0h 57m |
| Altitude | 35000 |
| Route | VODAN DCT BNE/N0401F230 A324 FOF A312 DOM/N0405F240 A312 KASKI DCT GADES DCT EMALI DCT BOPAR |
| Aircraft | B772/H-SDE2E3FGHIJ5LORVWXY/LB1D1 |
Departure
| Time | 2026-04-25 01:35 |
|---|---|
| Airport | A.N.R. Robinson International Airport (TTCP) |
Arrival
| Time | 2026-04-25 02:32 |
|---|---|
| Airport | V. C. Bird International Airport (TAPA) |
| Time | Latitude | Longitude | Altitude | Speed | Heading |
|---|---|---|---|---|---|
| 2026-04-25 01:09 | 11.15186 | -60.84005 | 21 ft | 0 kts | 4° |
| 2026-04-25 01:25 | 11.15177 | -60.84006 | 48 ft | 4 kts | 1° |
| 2026-04-25 01:25 | 11.15150 | -60.84004 | 49 ft | 4 kts | 343° |
| 2026-04-25 01:25 | 11.15127 | -60.83992 | 47 ft | 4 kts | 309° |
| 2026-04-25 01:25 | 11.15118 | -60.83975 | 46 ft | 0 kts | 274° |
| 2026-04-25 01:26 | 11.15119 | -60.83975 | 46 ft | 0 kts | 274° |
| 2026-04-25 01:28 | 11.15119 | -60.83984 | 46 ft | 3 kts | 274° |
| 2026-04-25 01:28 | 11.15121 | -60.84017 | 49 ft | 6 kts | 273° |
| 2026-04-25 01:28 | 11.15124 | -60.84066 | 49 ft | 8 kts | 273° |
| 2026-04-25 01:28 | 11.15103 | -60.84129 | 48 ft | 12 kts | 230° |
| 2026-04-25 01:29 | 11.15047 | -60.84213 | 53 ft | 16 kts | 254° |
| 2026-04-25 01:29 | 11.15032 | -60.84323 | 53 ft | 16 kts | 247° |
| 2026-04-25 01:29 | 11.15017 | -60.84428 | 53 ft | 11 kts | 298° |
| 2026-04-25 01:29 | 11.15053 | -60.84432 | 54 ft | 6 kts | 52° |
| 2026-04-25 01:30 | 11.15057 | -60.84389 | 53 ft | 6 kts | 96° |
| 2026-04-25 01:30 | 11.15056 | -60.84372 | 53 ft | 0 kts | 94° |
| 2026-04-25 01:34 | 11.15056 | -60.84368 | 53 ft | 7 kts | 94° |
| 2026-04-25 01:34 | 11.15038 | -60.84113 | 53 ft | 68 kts | 94° |
| 2026-04-25 01:34 | 11.14984 | -60.83367 | 63 ft | 140 kts | 94° |
| 2026-04-25 01:34 | 11.14906 | -60.82280 | 567 ft | 161 kts | 98° |
| 2026-04-25 01:35 | 11.14819 | -60.81112 | 1382 ft | 171 kts | 95° |
| 2026-04-25 01:35 | 11.14763 | -60.79870 | 2115 ft | 181 kts | 94° |
| 2026-04-25 01:35 | 11.14706 | -60.78620 | 2616 ft | 173 kts | 96° |
| 2026-04-25 01:35 | 11.14593 | -60.77408 | 3149 ft | 175 kts | 96° |
| 2026-04-25 01:36 | 11.14477 | -60.76167 | 3688 ft | 178 kts | 96° |
| 2026-04-25 01:36 | 11.14420 | -60.74890 | 4222 ft | 188 kts | 79° |
| 2026-04-25 01:36 | 11.15168 | -60.73742 | 4714 ft | 208 kts | 36° |
| 2026-04-25 01:36 | 11.16601 | -60.73389 | 5260 ft | 222 kts | 0° |
| 2026-04-25 01:37 | 11.18180 | -60.73537 | 5881 ft | 234 kts | 358° |
| 2026-04-25 01:37 | 11.19812 | -60.73705 | 6421 ft | 241 kts | 357° |
| 2026-04-25 01:37 | 11.21483 | -60.73879 | 6905 ft | 242 kts | 357° |
| 2026-04-25 01:37 | 11.23163 | -60.74055 | 7438 ft | 242 kts | 357° |
| 2026-04-25 01:38 | 11.24846 | -60.74231 | 7975 ft | 243 kts | 356° |
| 2026-04-25 01:38 | 11.26541 | -60.74403 | 8471 ft | 245 kts | 357° |
| 2026-04-25 01:38 | 11.28255 | -60.74574 | 9037 ft | 252 kts | 356° |
| 2026-04-25 01:38 | 11.30082 | -60.74751 | 9668 ft | 274 kts | 356° |
| 2026-04-25 01:39 | 11.32064 | -60.74941 | 10221 ft | 297 kts | 355° |
| 2026-04-25 01:39 | 11.34202 | -60.75145 | 10467 ft | 329 kts | 356° |
| 2026-04-25 01:39 | 11.36579 | -60.75370 | 10969 ft | 350 kts | 356° |
| 2026-04-25 01:39 | 11.39034 | -60.75604 | 11912 ft | 356 kts | 355° |
| 2026-04-25 01:40 | 11.41512 | -60.75840 | 13011 ft | 359 kts | 355° |
| 2026-04-25 01:40 | 11.44013 | -60.76076 | 14070 ft | 363 kts | 355° |
| 2026-04-25 01:40 | 11.46554 | -60.76316 | 14913 ft | 371 kts | 355° |
| 2026-04-25 01:40 | 11.49155 | -60.76561 | 15736 ft | 380 kts | 355° |
| 2026-04-25 01:41 | 11.51810 | -60.76810 | 16668 ft | 385 kts | 355° |
| 2026-04-25 01:41 | 11.54511 | -60.77063 | 17460 ft | 395 kts | 355° |
| 2026-04-25 01:41 | 11.57271 | -60.77321 | 18364 ft | 400 kts | 355° |
| 2026-04-25 01:41 | 11.60066 | -60.77583 | 19209 ft | 405 kts | 354° |
| 2026-04-25 01:42 | 11.62892 | -60.77847 | 20025 ft | 410 kts | 354° |
| 2026-04-25 01:42 | 11.65731 | -60.78113 | 21014 ft | 410 kts | 354° |
| 2026-04-25 01:42 | 11.68587 | -60.78380 | 21882 ft | 415 kts | 354° |
| 2026-04-25 01:42 | 11.71478 | -60.78652 | 22692 ft | 420 kts | 354° |
| 2026-04-25 01:43 | 11.74417 | -60.78928 | 23467 ft | 426 kts | 353° |
| 2026-04-25 01:43 | 11.77389 | -60.79208 | 24152 ft | 431 kts | 354° |
| 2026-04-25 01:43 | 11.80391 | -60.79489 | 24862 ft | 435 kts | 353° |
| 2026-04-25 01:43 | 11.83382 | -60.79769 | 25492 ft | 441 kts | 353° |
| 2026-04-25 01:44 | 11.86458 | -60.80058 | 26202 ft | 445 kts | 353° |
| 2026-04-25 01:44 | 11.89558 | -60.80349 | 26848 ft | 450 kts | 353° |
| 2026-04-25 01:44 | 11.92701 | -60.80643 | 27441 ft | 456 kts | 353° |
| 2026-04-25 01:44 | 11.95879 | -60.80941 | 27999 ft | 462 kts | 353° |
| 2026-04-25 01:45 | 11.99105 | -60.81244 | 28598 ft | 467 kts | 353° |
| 2026-04-25 01:45 | 12.02349 | -60.81548 | 29229 ft | 470 kts | 353° |
| 2026-04-25 01:45 | 12.05619 | -60.81855 | 29813 ft | 474 kts | 353° |
| 2026-04-25 01:45 | 12.08916 | -60.82164 | 30327 ft | 477 kts | 353° |
| 2026-04-25 01:46 | 12.12240 | -60.82476 | 30775 ft | 481 kts | 353° |
| 2026-04-25 01:46 | 12.15592 | -60.82791 | 31194 ft | 485 kts | 353° |
| 2026-04-25 01:46 | 12.18965 | -60.83108 | 31623 ft | 488 kts | 353° |
| 2026-04-25 01:46 | 12.22313 | -60.83422 | 32059 ft | 491 kts | 353° |
| 2026-04-25 01:47 | 12.25730 | -60.83743 | 32516 ft | 493 kts | 353° |
| 2026-04-25 01:47 | 12.29159 | -60.84066 | 32958 ft | 496 kts | 354° |
| 2026-04-25 01:47 | 12.32606 | -60.84390 | 33361 ft | 498 kts | 354° |
| 2026-04-25 01:47 | 12.36076 | -60.84716 | 33760 ft | 501 kts | 354° |
| 2026-04-25 01:48 | 12.39553 | -60.85043 | 34166 ft | 502 kts | 354° |
| 2026-04-25 01:48 | 12.43033 | -60.85371 | 34623 ft | 502 kts | 354° |
| 2026-04-25 01:48 | 12.46508 | -60.85698 | 34993 ft | 503 kts | 354° |
| 2026-04-25 01:48 | 12.50019 | -60.86029 | 34985 ft | 505 kts | 353° |
| 2026-04-25 01:49 | 12.56928 | -60.86679 | 34987 ft | 499 kts | 353° |
| 2026-04-25 01:49 | 12.63859 | -60.87333 | 34987 ft | 500 kts | 353° |
| 2026-04-25 01:50 | 12.70806 | -60.87988 | 34987 ft | 501 kts | 353° |
| 2026-04-25 01:50 | 12.77751 | -60.88644 | 34987 ft | 501 kts | 353° |
| 2026-04-25 01:51 | 12.84679 | -60.89298 | 34983 ft | 501 kts | 353° |
| 2026-04-25 01:51 | 12.91638 | -60.89956 | 34982 ft | 501 kts | 353° |
| 2026-04-25 01:52 | 12.98547 | -60.90609 | 34990 ft | 501 kts | 353° |
| 2026-04-25 01:52 | 13.05487 | -60.91273 | 34985 ft | 501 kts | 353° |
| 2026-04-25 01:53 | 13.12437 | -60.91947 | 34987 ft | 500 kts | 353° |
| 2026-04-25 01:53 | 13.19367 | -60.92604 | 34984 ft | 500 kts | 353° |
| 2026-04-25 01:54 | 13.26294 | -60.93257 | 34977 ft | 500 kts | 353° |
| 2026-04-25 01:54 | 13.33222 | -60.93912 | 34979 ft | 499 kts | 353° |
| 2026-04-25 01:55 | 13.40153 | -60.94568 | 34980 ft | 499 kts | 353° |
| 2026-04-25 01:55 | 13.47025 | -60.95219 | 34986 ft | 499 kts | 353° |
| 2026-04-25 01:56 | 13.53948 | -60.95875 | 34980 ft | 498 kts | 353° |
| 2026-04-25 01:56 | 13.60862 | -60.96530 | 34991 ft | 498 kts | 353° |
| 2026-04-25 01:57 | 13.71205 | -60.97508 | 34995 ft | 497 kts | 353° |
| 2026-04-25 01:58 | 13.78075 | -60.98057 | 35003 ft | 498 kts | 355° |
| 2026-04-25 01:58 | 13.85013 | -60.98385 | 34985 ft | 498 kts | 355° |
| 2026-04-25 01:59 | 13.91954 | -60.98708 | 35002 ft | 498 kts | 355° |
| 2026-04-25 01:59 | 13.98886 | -60.99065 | 34990 ft | 498 kts | 355° |
| 2026-04-25 02:00 | 14.05811 | -60.99434 | 34984 ft | 498 kts | 355° |
| 2026-04-25 02:00 | 14.12692 | -60.99795 | 35004 ft | 498 kts | 354° |
| 2026-04-25 02:01 | 14.19616 | -61.00162 | 35005 ft | 498 kts | 354° |
| 2026-04-25 02:01 | 14.26553 | -61.00543 | 35006 ft | 498 kts | 354° |
| 2026-04-25 02:02 | 14.33477 | -61.00924 | 34996 ft | 498 kts | 354° |
| 2026-04-25 02:02 | 14.40411 | -61.01299 | 35003 ft | 498 kts | 354° |
| 2026-04-25 02:03 | 14.47299 | -61.01668 | 35007 ft | 499 kts | 354° |
| 2026-04-25 02:03 | 14.54233 | -61.02042 | 35006 ft | 499 kts | 354° |
| 2026-04-25 02:04 | 14.61138 | -61.02829 | 34997 ft | 495 kts | 345° |
| 2026-04-25 02:04 | 14.67747 | -61.04669 | 35000 ft | 493 kts | 340° |
| 2026-04-25 02:05 | 14.74357 | -61.06615 | 35005 ft | 494 kts | 340° |
| 2026-04-25 02:05 | 14.80960 | -61.08518 | 35004 ft | 494 kts | 341° |
| 2026-04-25 02:06 | 14.86497 | -61.10089 | 35010 ft | 495 kts | 341° |
| 2026-04-25 02:06 | 14.93147 | -61.11976 | 35009 ft | 495 kts | 341° |
| 2026-04-25 02:07 | 14.99802 | -61.13864 | 35012 ft | 495 kts | 341° |
| 2026-04-25 02:07 | 15.06459 | -61.15755 | 35009 ft | 496 kts | 340° |
| 2026-04-25 02:08 | 15.13079 | -61.17637 | 35009 ft | 496 kts | 340° |
| 2026-04-25 02:08 | 15.19742 | -61.19533 | 35011 ft | 495 kts | 340° |
| 2026-04-25 02:09 | 15.26360 | -61.21417 | 35011 ft | 495 kts | 340° |
| 2026-04-25 02:09 | 15.33005 | -61.23309 | 35017 ft | 495 kts | 340° |
| 2026-04-25 02:10 | 15.39697 | -61.25215 | 35028 ft | 495 kts | 340° |
| 2026-04-25 02:10 | 15.42975 | -61.26150 | 34859 ft | 496 kts | 340° |
| 2026-04-25 02:10 | 15.46349 | -61.27114 | 33912 ft | 507 kts | 340° |
| 2026-04-25 02:10 | 15.49749 | -61.28083 | 33249 ft | 503 kts | 340° |
| 2026-04-25 02:11 | 15.53116 | -61.29040 | 32638 ft | 498 kts | 340° |
| 2026-04-25 02:11 | 15.56441 | -61.29992 | 32055 ft | 492 kts | 339° |
| 2026-04-25 02:11 | 15.59698 | -61.31034 | 31459 ft | 486 kts | 337° |
| 2026-04-25 02:11 | 15.62854 | -61.32126 | 30883 ft | 481 kts | 336° |
| 2026-04-25 02:12 | 15.66017 | -61.33248 | 30288 ft | 477 kts | 336° |
| 2026-04-25 02:12 | 15.69156 | -61.34360 | 29623 ft | 473 kts | 337° |
| 2026-04-25 02:12 | 15.72235 | -61.35436 | 28916 ft | 457 kts | 337° |
| 2026-04-25 02:12 | 15.75195 | -61.36455 | 28279 ft | 438 kts | 337° |
| 2026-04-25 02:13 | 15.78079 | -61.37443 | 27707 ft | 434 kts | 337° |
| 2026-04-25 02:13 | 15.80936 | -61.38422 | 27123 ft | 431 kts | 337° |
| 2026-04-25 02:13 | 15.83779 | -61.39400 | 26542 ft | 429 kts | 337° |
| 2026-04-25 02:13 | 15.86565 | -61.40360 | 25971 ft | 427 kts | 337° |
| 2026-04-25 02:14 | 15.89387 | -61.41330 | 25388 ft | 425 kts | 338° |
| 2026-04-25 02:14 | 15.92207 | -61.42295 | 24811 ft | 424 kts | 338° |
| 2026-04-25 02:14 | 15.95009 | -61.43252 | 24217 ft | 423 kts | 338° |
| 2026-04-25 02:14 | 15.97799 | -61.44205 | 23637 ft | 423 kts | 338° |
| 2026-04-25 02:15 | 16.00595 | -61.45159 | 22968 ft | 422 kts | 338° |
| 2026-04-25 02:15 | 16.03373 | -61.46108 | 22362 ft | 419 kts | 338° |
| 2026-04-25 02:15 | 16.06130 | -61.47049 | 21793 ft | 415 kts | 338° |
| 2026-04-25 02:15 | 16.08865 | -61.47983 | 21218 ft | 412 kts | 339° |
| 2026-04-25 02:16 | 16.11542 | -61.48898 | 20670 ft | 408 kts | 339° |
| 2026-04-25 02:16 | 16.14266 | -61.49829 | 20126 ft | 405 kts | 339° |
| 2026-04-25 02:16 | 16.16936 | -61.50741 | 19571 ft | 402 kts | 339° |
| 2026-04-25 02:16 | 16.19558 | -61.51636 | 19043 ft | 400 kts | 339° |
| 2026-04-25 02:17 | 16.22200 | -61.52539 | 18517 ft | 397 kts | 339° |
| 2026-04-25 02:17 | 16.24814 | -61.53435 | 17929 ft | 395 kts | 339° |
| 2026-04-25 02:17 | 16.27423 | -61.54322 | 17376 ft | 391 kts | 340° |
| 2026-04-25 02:17 | 16.30019 | -61.55135 | 16853 ft | 387 kts | 341° |
| 2026-04-25 02:18 | 16.32598 | -61.55909 | 16342 ft | 384 kts | 342° |
| 2026-04-25 02:18 | 16.35158 | -61.56668 | 15839 ft | 381 kts | 342° |
| 2026-04-25 02:18 | 16.37697 | -61.57422 | 15327 ft | 378 kts | 342° |
| 2026-04-25 02:18 | 16.40188 | -61.58165 | 14838 ft | 375 kts | 342° |
| 2026-04-25 02:19 | 16.42688 | -61.58915 | 14323 ft | 373 kts | 342° |
| 2026-04-25 02:19 | 16.45180 | -61.59664 | 13802 ft | 372 kts | 342° |
| 2026-04-25 02:19 | 16.47659 | -61.60411 | 13239 ft | 369 kts | 342° |
| 2026-04-25 02:19 | 16.50119 | -61.61152 | 12711 ft | 366 kts | 342° |
| 2026-04-25 02:20 | 16.52567 | -61.61890 | 12197 ft | 363 kts | 342° |
| 2026-04-25 02:20 | 16.54987 | -61.62619 | 11692 ft | 361 kts | 342° |
| 2026-04-25 02:20 | 16.57389 | -61.63343 | 11189 ft | 358 kts | 342° |
| 2026-04-25 02:20 | 16.59776 | -61.64062 | 10685 ft | 356 kts | 343° |
| 2026-04-25 02:21 | 16.62130 | -61.64770 | 10460 ft | 342 kts | 343° |
| 2026-04-25 02:21 | 16.64330 | -61.65433 | 10285 ft | 316 kts | 343° |
| 2026-04-25 02:21 | 16.66363 | -61.66049 | 10143 ft | 293 kts | 343° |
| 2026-04-25 02:21 | 16.68254 | -61.66625 | 10006 ft | 274 kts | 342° |
| 2026-04-25 02:22 | 16.70051 | -61.67181 | 9752 ft | 274 kts | 341° |
| 2026-04-25 02:22 | 16.71780 | -61.68055 | 9441 ft | 278 kts | 320° |
| 2026-04-25 02:22 | 16.73195 | -61.69450 | 9119 ft | 284 kts | 314° |
| 2026-04-25 02:22 | 16.74607 | -61.70904 | 8780 ft | 285 kts | 314° |
| 2026-04-25 02:23 | 16.76030 | -61.72343 | 8437 ft | 284 kts | 315° |
| 2026-04-25 02:23 | 16.77457 | -61.73770 | 8107 ft | 283 kts | 315° |
| 2026-04-25 02:23 | 16.78881 | -61.75182 | 7772 ft | 282 kts | 315° |
| 2026-04-25 02:23 | 16.80284 | -61.76568 | 7457 ft | 280 kts | 316° |
| 2026-04-25 02:24 | 16.81699 | -61.77961 | 7124 ft | 278 kts | 316° |
| 2026-04-25 02:24 | 16.83106 | -61.79343 | 6822 ft | 276 kts | 316° |
| 2026-04-25 02:24 | 16.84497 | -61.80708 | 6529 ft | 273 kts | 316° |
| 2026-04-25 02:24 | 16.85871 | -61.82055 | 6250 ft | 270 kts | 316° |
| 2026-04-25 02:25 | 16.87220 | -61.83375 | 6036 ft | 261 kts | 316° |
| 2026-04-25 02:25 | 16.88535 | -61.84661 | 5749 ft | 256 kts | 316° |
| 2026-04-25 02:25 | 16.89832 | -61.85929 | 5451 ft | 253 kts | 316° |
| 2026-04-25 02:25 | 16.91102 | -61.87176 | 5149 ft | 249 kts | 316° |
| 2026-04-25 02:26 | 16.92358 | -61.88412 | 4852 ft | 246 kts | 316° |
| 2026-04-25 02:26 | 16.93599 | -61.89636 | 4547 ft | 244 kts | 316° |
| 2026-04-25 02:26 | 16.94828 | -61.90841 | 4280 ft | 238 kts | 318° |
| 2026-04-25 02:26 | 16.96171 | -61.91840 | 4024 ft | 243 kts | 328° |
| 2026-04-25 02:27 | 16.97628 | -61.92744 | 3777 ft | 242 kts | 329° |
| 2026-04-25 02:27 | 16.99066 | -61.93640 | 3483 ft | 239 kts | 330° |
| 2026-04-25 02:27 | 17.00480 | -61.94537 | 3265 ft | 235 kts | 329° |
| 2026-04-25 02:27 | 17.01887 | -61.95251 | 2983 ft | 218 kts | 348° |
| 2026-04-25 02:28 | 17.03356 | -61.95152 | 2742 ft | 209 kts | 20° |
| 2026-04-25 02:28 | 17.04590 | -61.94393 | 2629 ft | 204 kts | 42° |
| 2026-04-25 02:28 | 17.05464 | -61.93252 | 2591 ft | 199 kts | 58° |
| 2026-04-25 02:28 | 17.06191 | -61.92030 | 2421 ft | 196 kts | 59° |
| 2026-04-25 02:29 | 17.06889 | -61.90842 | 2237 ft | 187 kts | 60° |
| 2026-04-25 02:29 | 17.07542 | -61.89741 | 2093 ft | 171 kts | 59° |
| 2026-04-25 02:29 | 17.08176 | -61.88656 | 2023 ft | 175 kts | 59° |
| 2026-04-25 02:29 | 17.08788 | -61.87608 | 1807 ft | 165 kts | 60° |
| 2026-04-25 02:30 | 17.09366 | -61.86621 | 1641 ft | 153 kts | 60° |
| 2026-04-25 02:30 | 17.09916 | -61.85689 | 1365 ft | 144 kts | 59° |
| 2026-04-25 02:30 | 17.10418 | -61.84839 | 1068 ft | 132 kts | 59° |
| 2026-04-25 02:30 | 17.10906 | -61.84017 | 837 ft | 132 kts | 59° |
| 2026-04-25 02:31 | 17.11371 | -61.83198 | 636 ft | 131 kts | 64° |
| 2026-04-25 02:31 | 17.11838 | -61.82365 | 482 ft | 137 kts | 63° |
| 2026-04-25 02:31 | 17.12337 | -61.81526 | 333 ft | 135 kts | 62° |
| 2026-04-25 02:31 | 17.12824 | -61.80705 | 164 ft | 134 kts | 61° |
| 2026-04-25 02:32 | 17.13318 | -61.79868 | 85 ft | 134 kts | 60° |
| 2026-04-25 02:32 | 17.13740 | -61.79152 | 62 ft | 90 kts | 58° |
| 2026-04-25 02:32 | 17.13995 | -61.78718 | 62 ft | 45 kts | 58° |
| 2026-04-25 02:32 | 17.14100 | -61.78706 | 68 ft | 18 kts | 276° |
| 2026-04-25 02:33 | 17.14108 | -61.78813 | 64 ft | 11 kts | 274° |
| 2026-04-25 02:33 | 17.14088 | -61.78888 | 61 ft | 10 kts | 243° |
| 2026-04-25 02:33 | 17.14082 | -61.78901 | 63 ft | 0 kts | 241° |
| 2026-04-25 02:34 | 17.14076 | -61.78916 | 62 ft | 5 kts | 255° |
| 2026-04-25 02:34 | 17.14095 | -61.78949 | 58 ft | 6 kts | 319° |
| 2026-04-25 02:34 | 17.14127 | -61.78971 | 61 ft | 5 kts | 328° |
| 2026-04-25 02:34 | 17.14132 | -61.78974 | 60 ft | 0 kts | 328° |